Time;durP1;ratioP1;P1;durP2;ratioP2;P2;SDS_P1;SDS_P2;PMS_P1;PMS_P2;Temp;Humidity;BMP_temperature;BMP_pressure;BME280_temperature;BME280_humidity;BME280_pressure;Samples;Min_cycle;Max_cycle;Signal;HPM_P1;HPM_P2
2021/10/12 00:00:45;;;;;;;17.45;10.88;;;;;;;14.26;38.60;100125.75;3378191;29;20052;-78
2021/10/12 00:02:26;;;;;;;19.75;12.02;;;;;;;14.22;38.78;100121.81;3378032;29;20535;-78
2021/10/12 00:04:07;;;;;;;17.88;10.60;;;;;;;14.23;39.24;100123.47;3378069;29;20041;-77
2021/10/12 00:05:47;;;;;;;18.60;10.55;;;;;;;14.23;38.78;100126.16;3377493;29;20041;-77
2021/10/12 00:07:28;;;;;;;15.38;10.30;;;;;;;14.30;39.24;100127.00;3377710;29;20060;-78
2021/10/12 00:09:09;;;;;;;14.27;10.13;;;;;;;14.47;38.98;100118.50;3377994;29;20045;-76
2021/10/12 00:10:49;;;;;;;20.20;10.73;;;;;;;14.60;39.21;100113.13;3377896;29;20048;-77
2021/10/12 00:12:30;;;;;;;15.98;10.65;;;;;;;14.68;38.81;100122.81;3376885;29;20041;-77
2021/10/12 00:14:11;;;;;;;18.65;11.32;;;;;;;14.72;38.59;100119.50;3377263;29;20047;-76
2021/10/12 00:15:51;;;;;;;18.38;11.43;;;;;;;14.69;38.18;100119.09;3377244;29;20519;-77
2021/10/12 00:17:32;;;;;;;16.27;11.43;;;;;;;14.74;38.23;100124.63;3376926;29;20136;-79
2021/10/12 00:19:13;;;;;;;23.65;10.98;;;;;;;14.79;38.48;100114.09;3377489;29;20141;-80
2021/10/12 00:20:54;;;;;;;18.45;10.23;;;;;;;14.81;37.99;100112.84;3377677;29;20107;-80
2021/10/12 00:22:36;;;;;;;22.73;12.57;;;;;;;14.72;38.34;100113.31;3377716;29;20460;-79
2021/10/12 00:24:17;;;;;;;17.60;11.27;;;;;;;14.57;38.28;100105.50;3377133;29;20135;-78
2021/10/12 00:25:58;;;;;;;17.63;10.88;;;;;;;14.51;38.40;100114.38;3373861;29;20047;-77
2021/10/12 00:27:38;;;;;;;23.10;13.15;;;;;;;14.48;38.40;100104.03;3377743;29;20040;-78
2021/10/12 00:29:19;;;;;;;20.48;12.07;;;;;;;14.44;38.57;100116.25;3376959;29;20135;-79
2021/10/12 00:31:00;;;;;;;18.85;11.98;;;;;;;14.37;38.74;100109.00;3377734;29;20056;-78
2021/10/12 00:32:44;;;;;;;18.77;11.60;;;;;;;14.34;38.94;100112.13;3403257;29;20039;-77
2021/10/12 00:34:24;;;;;;;19.63;12.13;;;;;;;14.33;39.15;100104.31;3381153;29;20096;-78
2021/10/12 00:36:05;;;;;;;29.10;12.80;;;;;;;14.30;38.89;100105.53;3377430;29;20041;-78
2021/10/12 00:37:46;;;;;;;22.63;12.90;;;;;;;14.24;39.00;100098.31;3377705;29;20040;-79
2021/10/12 00:39:26;;;;;;;19.42;12.43;;;;;;;14.30;39.06;100110.06;3377460;29;20045;-78
2021/10/12 00:41:11;;;;;;;22.60;12.10;;;;;;;14.33;38.88;100102.44;3377848;29;20524;-77
2021/10/12 00:42:52;;;;;;;21.25;13.27;;;;;;;14.38;38.92;100102.63;3377852;29;20051;-77
2021/10/12 00:44:33;;;;;;;20.63;11.77;;;;;;;14.39;39.13;100103.44;3377053;29;20084;-78
2021/10/12 00:46:14;;;;;;;19.05;10.65;;;;;;;14.44;38.99;100105.50;3376869;29;20083;-78
2021/10/12 00:47:57;;;;;;;19.77;12.23;;;;;;;14.48;38.84;100096.84;3377373;29;20049;-77
2021/10/12 00:49:38;;;;;;;26.30;11.90;;;;;;;14.44;38.86;100097.47;3376956;29;20103;-76
2021/10/12 00:51:22;;;;;;;24.80;13.43;;;;;;;14.35;38.79;100091.47;3378782;29;20048;-77
2021/10/12 00:53:04;;;;;;;21.33;12.68;;;;;;;14.33;38.91;100101.63;3390566;29;20452;-78
2021/10/12 00:54:44;;;;;;;19.27;12.10;;;;;;;14.29;39.15;100089.66;3382298;29;20045;-78
2021/10/12 00:56:31;;;;;;;23.05;12.27;;;;;;;14.35;39.38;100086.97;3378657;29;20048;-78
2021/10/12 00:58:15;;;;;;;23.45;12.00;;;;;;;14.30;38.97;100094.81;3365225;29;20073;-79
2021/10/12 00:59:59;;;;;;;22.15;12.65;;;;;;;14.24;39.22;100095.63;3378059;29;20041;-79
2021/10/12 01:01:43;;;;;;;18.80;12.63;;;;;;;14.20;39.39;100094.41;3365575;29;20045;-78
2021/10/12 01:03:26;;;;;;;21.73;12.38;;;;;;;14.15;39.11;100097.72;3377198;29;20044;-79
2021/10/12 01:05:11;;;;;;;22.75;13.73;;;;;;;14.08;39.35;100090.72;3378492;29;20044;-81
2021/10/12 01:06:51;;;;;;;23.35;12.45;;;;;;;14.07;39.41;100089.03;3374891;29;20113;-79
2021/10/12 01:08:32;;;;;;;24.73;13.75;;;;;;;14.03;39.57;100087.84;3374318;29;20524;-79
2021/10/12 01:10:13;;;;;;;19.65;13.63;;;;;;;13.93;39.66;100089.06;3377724;29;20052;-78
2021/10/12 01:11:53;;;;;;;23.05;13.90;;;;;;;13.92;39.76;100086.59;3377621;29;20127;-78
2021/10/12 01:13:43;;;;;;;22.88;13.75;;;;;;;13.93;39.86;100083.69;3378440;29;20048;-79
2021/10/12 01:15:27;;;;;;;18.90;12.95;;;;;;;14.10;39.88;100080.63;3378790;29;20074;-79
2021/10/12 01:17:07;;;;;;;23.52;13.05;;;;;;;14.16;39.61;100077.09;3376278;29;20040;-79
2021/10/12 01:18:59;;;;;;;27.23;13.05;;;;;;;14.23;39.45;100088.63;3379307;29;20095;-78
2021/10/12 01:20:40;;;;;;;23.75;13.45;;;;;;;14.19;39.39;100088.22;3399094;29;20392;-77
2021/10/12 01:22:22;;;;;;;28.85;13.52;;;;;;;14.26;39.42;100085.53;3381089;29;20056;-79
2021/10/12 01:24:04;;;;;;;21.73;12.95;;;;;;;14.13;39.26;100053.38;3383022;29;20512;-78
2021/10/12 01:25:46;;;;;;;20.65;13.45;;;;;;;14.35;39.16;100084.28;3378258;29;20083;-78
2021/10/12 01:27:35;;;;;;;26.63;14.00;;;;;;;14.36;39.09;100088.59;3377695;29;20037;-80
2021/10/12 01:29:19;;;;;;;22.10;13.15;;;;;;;14.30;39.69;100077.88;3389662;29;20096;-80
2021/10/12 01:31:02;;;;;;;22.10;13.70;;;;;;;14.18;39.50;100081.22;3379064;29;20107;-76
2021/10/12 01:32:45;;;;;;;24.08;13.85;;;;;;;14.06;39.60;100069.47;3377669;29;20048;-79
2021/10/12 01:34:36;;;;;;;21.38;13.23;;;;;;;13.98;39.74;100085.75;3388798;29;20443;-77
2021/10/12 01:36:19;;;;;;;23.83;13.57;;;;;;;13.79;39.81;100059.81;3375424;29;20076;-79
2021/10/12 01:38:04;;;;;;;24.20;14.60;;;;;;;13.89;39.98;100081.66;3386061;29;20046;-79
2021/10/12 01:39:47;;;;;;;24.23;13.05;;;;;;;13.88;39.97;100080.81;3363112;29;20037;-79
2021/10/12 01:41:31;;;;;;;22.73;13.25;;;;;;;13.77;39.92;100051.97;3374314;29;20040;-79
2021/10/12 01:43:12;;;;;;;22.42;14.43;;;;;;;13.83;40.11;100069.06;3401518;29;20051;-78
2021/10/12 01:44:53;;;;;;;22.95;13.32;;;;;;;13.84;40.20;100063.53;3382082;29;20504;-77
2021/10/12 01:46:34;;;;;;;31.42;14.63;;;;;;;13.86;40.10;100071.34;3375876;29;20040;-77
2021/10/12 01:48:14;;;;;;;28.00;14.02;;;;;;;13.83;40.28;100072.56;3372722;29;20135;-79
2021/10/12 01:49:55;;;;;;;20.67;12.77;;;;;;;13.83;40.42;100069.88;3376486;29;20071;-78
2021/10/12 01:51:36;;;;;;;25.15;13.40;;;;;;;13.88;40.27;100075.44;3401806;29;20126;-78
2021/10/12 01:53:17;;;;;;;23.20;13.52;;;;;;;13.75;40.18;100043.31;3391594;29;20055;-78
2021/10/12 01:54:59;;;;;;;23.33;14.52;;;;;;;13.77;40.04;100041.25;3349938;29;20526;-79
2021/10/12 01:56:39;;;;;;;20.40;12.30;;;;;;;13.85;40.29;100057.13;3370447;29;20446;-78
2021/10/12 01:58:20;;;;;;;19.00;12.68;;;;;;;13.83;40.01;100059.16;3376152;29;20044;-77
2021/10/12 02:00:01;;;;;;;24.58;14.13;;;;;;;13.79;40.14;100055.28;3401682;29;20534;-79
2021/10/12 02:01:58;;;;;;;23.23;13.40;;;;;;;13.81;40.33;100057.72;3378718;29;20472;-77
2021/10/12 02:03:39;;;;;;;23.23;14.55;;;;;;;13.77;40.25;100051.97;3376415;29;20445;-78
2021/10/12 02:05:22;;;;;;;20.17;13.98;;;;;;;13.81;40.26;100058.56;3376077;29;20080;-78
2021/10/12 02:07:11;;;;;;;18.33;12.18;;;;;;;13.92;40.48;100055.25;3376357;29;20119;-77
2021/10/12 02:08:55;;;;;;;22.90;13.85;;;;;;;13.93;40.37;100043.50;3388009;29;20047;-78
2021/10/12 02:10:36;;;;;;;25.25;13.30;;;;;;;14.08;39.92;100048.66;3378403;29;20489;-79
2021/10/12 02:12:17;;;;;;;24.58;13.05;;;;;;;14.01;39.99;100030.94;3373372;29;20053;-79
2021/10/12 02:13:58;;;;;;;24.55;13.98;;;;;;;14.07;39.79;100032.75;3372934;29;20048;-79
2021/10/12 02:15:39;;;;;;;23.17;14.45;;;;;;;14.09;40.10;100052.97;3373092;29;20060;-78
2021/10/12 02:17:20;;;;;;;25.03;13.23;;;;;;;14.04;40.23;100042.03;3359460;29;20037;-78
2021/10/12 02:19:01;;;;;;;22.60;14.00;;;;;;;14.04;40.15;100041.22;3373105;29;20397;-77
2021/10/12 02:20:42;;;;;;;24.67;13.80;;;;;;;14.06;40.21;100045.34;3376358;29;20056;-78
2021/10/12 02:22:26;;;;;;;22.70;14.38;;;;;;;14.06;40.09;100047.19;3376481;29;20046;-78
2021/10/12 02:24:08;;;;;;;27.65;14.65;;;;;;;13.88;40.22;100019.19;3374736;29;20986;-77
2021/10/12 02:25:52;;;;;;;26.83;14.55;;;;;;;13.94;40.11;100045.16;3375716;29;20047;-77
2021/10/12 02:27:33;;;;;;;24.85;13.98;;;;;;;13.80;40.00;100016.72;3401308;29;20130;-76
2021/10/12 02:29:14;;;;;;;29.30;14.65;;;;;;;13.83;40.40;100015.50;3377666;29;20073;-76
2021/10/12 02:30:54;;;;;;;22.83;13.55;;;;;;;14.06;40.23;100036.47;3372650;29;20052;-77
2021/10/12 02:32:38;;;;;;;26.25;14.27;;;;;;;14.07;40.11;100041.66;3385992;29;20048;-77
2021/10/12 02:34:19;;;;;;;22.05;13.73;;;;;;;14.02;40.18;100036.09;3378116;29;20036;-77
2021/10/12 02:36:00;;;;;;;22.88;14.10;;;;;;;14.02;40.29;100037.91;3376007;29;20045;-76
2021/10/12 02:37:40;;;;;;;29.65;13.20;;;;;;;14.02;40.62;100037.91;3376173;29;20053;-77
2021/10/12 02:39:21;;;;;;;25.27;14.85;;;;;;;14.04;40.48;100031.31;3375510;29;20079;-75
2021/10/12 02:41:02;;;;;;;25.25;13.50;;;;;;;14.09;40.32;100044.09;3376079;29;20049;-77
2021/10/12 02:42:43;;;;;;;19.83;13.23;;;;;;;14.10;40.16;100037.72;3375978;29;20067;-76
2021/10/12 02:44:23;;;;;;;19.70;12.00;;;;;;;14.13;40.86;100035.44;3401198;29;20051;-77
2021/10/12 02:46:04;;;;;;;18.13;12.02;;;;;;;14.24;40.88;100036.66;3380999;29;20048;-78
2021/10/12 02:47:45;;;;;;;17.10;11.32;;;;;;;14.44;40.95;100041.97;3376311;29;20047;-78
2021/10/12 02:49:26;;;;;;;21.38;13.35;;;;;;;14.60;40.50;100040.69;3375611;29;20036;-76
2021/10/12 02:51:06;;;;;;;17.98;12.40;;;;;;;14.74;39.89;100039.63;3375049;29;20052;-77
2021/10/12 02:52:47;;;;;;;22.85;13.55;;;;;;;14.82;40.13;100042.06;3376078;29;20040;-77
2021/10/12 02:54:28;;;;;;;20.80;13.15;;;;;;;14.86;39.73;100033.56;3376200;29;20122;-77
2021/10/12 02:56:09;;;;;;;19.30;11.52;;;;;;;14.95;39.69;100037.69;3401296;29;20067;-77
2021/10/12 02:57:49;;;;;;;21.15;13.00;;;;;;;15.01;39.40;100032.25;3381602;29;20500;-77
2021/10/12 02:59:30;;;;;;;23.48;14.43;;;;;;;15.00;39.02;100040.53;3375620;29;20052;-77
2021/10/12 03:01:10;;;;;;;26.63;13.75;;;;;;;14.91;39.11;100041.81;3375779;29;20104;-77
2021/10/12 03:02:51;;;;;;;21.52;13.05;;;;;;;14.86;39.38;100034.41;3375813;29;20552;-77
2021/10/12 03:04:32;;;;;;;29.10;13.88;;;;;;;14.76;39.21;100037.53;3375332;29;20049;-78
2021/10/12 03:06:13;;;;;;;19.20;12.25;;;;;;;14.66;39.35;100031.78;3375987;29;20557;-78
2021/10/12 03:07:54;;;;;;;21.73;13.60;;;;;;;14.54;39.27;100037.00;3374505;29;20056;-80
2021/10/12 03:09:34;;;;;;;22.55;13.63;;;;;;;14.55;39.80;100035.16;3371987;29;20539;-78
2021/10/12 03:11:15;;;;;;;18.40;12.25;;;;;;;14.56;39.97;100032.28;3376369;29;20048;-79
2021/10/12 03:12:56;;;;;;;21.30;13.63;;;;;;;14.57;39.84;100030.41;3376509;29;20403;-79
2021/10/12 03:14:37;;;;;;;22.67;14.18;;;;;;;14.54;39.61;100025.47;3401754;29;20067;-78
2021/10/12 03:16:17;;;;;;;23.42;12.43;;;;;;;14.56;39.66;100023.38;3381288;29;20516;-80
2021/10/12 03:17:58;;;;;;;24.02;13.35;;;;;;;14.51;39.75;100020.50;3376149;29;20128;-77
2021/10/12 03:19:39;;;;;;;24.20;14.35;;;;;;;14.39;39.79;100023.81;3376191;29;20040;-78
2021/10/12 03:21:21;;;;;;;21.33;13.57;;;;;;;14.33;40.07;100024.69;3376071;29;20048;-78
2021/10/12 03:23:01;;;;;;;;;;;;;;;14.40;39.71;100022.81;3377074;29;20579;-78
2021/10/12 03:24:43;;;;;;;24.92;13.65;;;;;;;14.22;39.90;100011.91;3375801;29;19923;-77
2021/10/12 03:26:23;;;;;;;22.67;13.23;;;;;;;14.23;39.95;100016.25;3375755;29;20044;-77
2021/10/12 03:28:04;;;;;;;23.63;13.60;;;;;;;14.21;40.02;100021.00;3376190;29;20287;-77
2021/10/12 03:29:45;;;;;;;28.05;13.70;;;;;;;14.21;40.13;100023.66;3375749;29;20044;-77
2021/10/12 03:31:25;;;;;;;22.05;13.10;;;;;;;14.22;40.20;100016.44;3375333;29;20104;-77
2021/10/12 03:33:06;;;;;;;25.00;13.85;;;;;;;14.23;40.10;100018.94;3376012;29;20085;-79
2021/10/12 03:34:47;;;;;;;21.20;13.30;;;;;;;14.26;40.20;100021.19;3400774;29;20507;-78
2021/10/12 03:36:27;;;;;;;26.77;14.38;;;;;;;14.19;40.06;100013.16;3380599;29;20036;-79
2021/10/12 03:38:08;;;;;;;23.77;15.75;;;;;;;14.18;40.22;100016.06;3375728;29;20056;-77
2021/10/12 03:39:49;;;;;;;20.30;13.65;;;;;;;14.10;40.26;100013.59;3375534;29;20416;-79
2021/10/12 03:41:29;;;;;;;23.70;13.63;;;;;;;14.01;40.63;100012.16;3374866;29;20072;-78
2021/10/12 03:43:10;;;;;;;29.20;15.27;;;;;;;13.95;40.57;100013.84;3386212;29;20047;-78
2021/10/12 03:44:51;;;;;;;30.55;15.57;;;;;;;13.89;40.64;100012.81;3377526;29;20132;-79
2021/10/12 03:46:31;;;;;;;29.40;15.20;;;;;;;13.81;40.94;100010.34;3375388;29;20504;-79
2021/10/12 03:48:12;;;;;;;24.70;14.10;;;;;;;13.80;40.97;100010.56;3375759;29;20044;-78
2021/10/12 03:49:53;;;;;;;23.27;12.98;;;;;;;13.82;40.94;100005.81;3375715;29;20059;-79
2021/10/12 03:51:34;;;;;;;21.73;12.88;;;;;;;13.89;41.09;100001.28;3375098;29;20044;-77
2021/10/12 03:53:14;;;;;;;16.98;12.75;;;;;;;14.05;41.14;100002.69;3375398;29;20072;-77
2021/10/12 03:54:55;;;;;;;21.70;13.80;;;;;;;14.15;40.93;99998.53;3374647;29;20528;-80
2021/10/12 03:56:35;;;;;;;28.33;13.98;;;;;;;14.20;40.67;100011.31;3375317;29;20417;-78
2021/10/12 03:58:16;;;;;;;24.33;15.20;;;;;;;14.14;40.68;100009.44;3375593;29;20413;-78
2021/10/12 03:59:57;;;;;;;26.85;16.48;;;;;;;14.04;40.67;100009.88;3375457;29;20049;-78
2021/10/12 04:01:38;;;;;;;24.92;14.60;;;;;;;13.99;40.85;100000.81;3375055;29;20044;-79
2021/10/12 04:03:19;;;;;;;26.20;14.05;;;;;;;13.94;40.98;100001.47;3375552;29;20479;-78
2021/10/12 04:04:59;;;;;;;22.13;14.02;;;;;;;13.94;40.73;100002.28;3375984;29;20056;-80
2021/10/12 04:06:41;;;;;;;29.08;15.55;;;;;;;13.94;40.83;100010.34;3375195;29;20036;-75
2021/10/12 04:08:22;;;;;;;23.75;14.40;;;;;;;13.89;40.79;100003.97;3375189;29;20048;-78
2021/10/12 04:10:04;;;;;;;25.08;14.38;;;;;;;13.79;40.94;100015.09;3375175;29;20385;-76
2021/10/12 04:11:45;;;;;;;25.17;15.05;;;;;;;13.69;41.19;100010.16;3374740;29;20041;-78
2021/10/12 04:13:25;;;;;;;25.63;14.93;;;;;;;13.60;41.38;100007.88;3375039;29;20459;-77
2021/10/12 04:15:07;;;;;;;25.33;13.57;;;;;;;13.68;41.92;100011.19;3373799;29;20073;-74
2021/10/12 04:16:48;;;;;;;30.10;15.48;;;;;;;13.81;41.82;100009.50;3374385;29;20064;-75
2021/10/12 04:18:28;;;;;;;23.73;15.20;;;;;;;13.75;41.45;100011.16;3375401;29;20056;-76
2021/10/12 04:20:10;;;;;;;20.90;13.13;;;;;;;13.73;41.85;100007.88;3376562;29;20045;-77
2021/10/12 04:21:50;;;;;;;23.30;14.10;;;;;;;13.70;41.81;100019.81;3376987;29;20048;-75
2021/10/12 04:23:31;;;;;;;28.42;14.20;;;;;;;13.71;41.66;100009.94;3377936;29;20120;-76
2021/10/12 04:25:12;;;;;;;30.02;15.48;;;;;;;13.81;41.64;100012.19;3377800;29;20079;-75
2021/10/12 04:26:55;;;;;;;26.98;12.98;;;;;;;13.93;41.78;100006.00;3377870;29;20385;-77
2021/10/12 04:28:36;;;;;;;21.50;13.93;;;;;;;14.07;41.13;100019.34;3377836;29;20041;-76
2021/10/12 04:30:17;;;;;;;25.70;15.55;;;;;;;14.10;41.12;100010.94;3389899;29;20431;-81
2021/10/12 04:32:02;;;;;;;28.10;14.13;;;;;;;14.13;41.55;100007.81;3380062;29;20420;-78
2021/10/12 04:33:42;;;;;;;26.45;16.67;;;;;;;14.08;41.47;100010.31;3377606;29;20076;-74
2021/10/12 04:35:23;;;;;;;26.83;15.25;;;;;;;13.91;41.50;100008.06;3377368;29;20397;-75
2021/10/12 04:37:04;;;;;;;27.90;15.88;;;;;;;13.69;41.85;100007.47;3377418;29;20180;-75
2021/10/12 04:38:45;;;;;;;22.40;13.80;;;;;;;13.61;42.95;100015.72;3377375;29;20060;-76
2021/10/12 04:40:25;;;;;;;28.20;15.60;;;;;;;13.69;42.77;100012.00;3376938;29;20036;-75
2021/10/12 04:42:06;;;;;;;27.77;15.38;;;;;;;13.74;42.27;100012.22;3376999;29;20560;-77
2021/10/12 04:43:47;;;;;;;29.30;15.52;;;;;;;13.70;42.20;100013.63;3377238;29;20048;-75
2021/10/12 04:45:28;;;;;;;26.58;15.38;;;;;;;13.66;42.28;100015.09;3377217;29;20037;-76
2021/10/12 04:47:11;;;;;;;29.85;16.35;;;;;;;13.66;42.33;100015.09;3377393;29;20059;-76
2021/10/12 04:48:52;;;;;;;24.17;15.10;;;;;;;13.70;42.51;100014.47;3377123;29;20044;-76
2021/10/12 04:50:33;;;;;;;26.45;15.27;;;;;;;13.75;42.18;100006.63;3377201;29;20043;-75
2021/10/12 04:52:14;;;;;;;33.63;16.35;;;;;;;13.71;41.84;100001.91;3376647;29;20040;-75
2021/10/12 04:53:55;;;;;;;25.17;14.87;;;;;;;13.69;42.32;100001.28;3376876;29;20052;-76
2021/10/12 04:55:40;;;;;;;25.70;15.48;;;;;;;13.64;42.25;100001.09;3377054;29;20285;-76
2021/10/12 04:57:21;;;;;;;35.58;16.20;;;;;;;13.50;42.49;100000.25;3377388;29;20088;-76
2021/10/12 04:59:02;;;;;;;28.50;16.08;;;;;;;13.41;42.55;99991.59;3377300;29;20571;-76
2021/10/12 05:00:45;;;;;;;28.60;14.82;;;;;;;13.47;42.50;100003.34;3376506;29;20044;-77
2021/10/12 05:02:25;;;;;;;26.73;14.35;;;;;;;13.70;43.01;99997.56;3377059;29;20049;-76
2021/10/12 05:04:06;;;;;;;23.58;14.45;;;;;;;13.87;42.29;99989.94;3377108;29;20044;-76
2021/10/12 05:05:47;;;;;;;25.33;14.52;;;;;;;14.01;41.86;99993.41;3377289;29;20048;-76
2021/10/12 05:07:27;;;;;;;29.75;16.27;;;;;;;14.02;41.66;99995.03;3377109;29;20052;-79
2021/10/12 05:09:08;;;;;;;33.30;17.38;;;;;;;14.02;41.88;100000.41;3377991;29;20411;-79
2021/10/12 05:10:49;;;;;;;23.10;14.60;;;;;;;14.10;41.66;99997.53;3378225;29;20048;-75
2021/10/12 05:12:30;;;;;;;24.77;14.93;;;;;;;14.18;41.71;100006.16;3377576;29;20397;-78
2021/10/12 05:14:10;;;;;;;28.80;13.63;;;;;;;14.16;41.47;100002.03;3402759;29;20594;-76
2021/10/12 05:15:51;;;;;;;26.23;14.05;;;;;;;14.22;41.45;99998.50;3382664;29;20091;-73
2021/10/12 05:17:36;;;;;;;;;;;;;;;14.32;41.19;100001.56;3377625;29;20055;-72
2021/10/12 05:19:17;;;;;;;25.48;14.00;;;;;;;14.16;41.38;99996.66;3377247;29;20308;-78
2021/10/12 05:20:58;;;;;;;17.33;11.77;;;;;;;14.10;42.29;99992.16;3376395;29;20480;-78
2021/10/12 05:22:39;;;;;;;24.73;15.00;;;;;;;14.06;42.01;99997.09;3376386;29;20041;-78
2021/10/12 05:24:20;;;;;;;23.40;14.85;;;;;;;14.03;41.97;100005.56;3376875;29;20060;-78
2021/10/12 05:26:01;;;;;;;30.15;15.63;;;;;;;13.94;41.82;99999.63;3377180;29;20053;-76
2021/10/12 05:27:42;;;;;;;20.33;14.18;;;;;;;13.85;41.63;100005.41;3377037;29;20049;-76
2021/10/12 05:29:23;;;;;;;27.10;14.52;;;;;;;13.72;42.04;100000.88;3373450;29;20043;-77
2021/10/12 05:31:04;;;;;;;24.75;16.60;;;;;;;13.69;42.13;99998.63;3375533;29;20078;-76
2021/10/12 05:32:44;;;;;;;24.42;14.95;;;;;;;13.69;42.17;100001.28;3374637;29;20131;-75
2021/10/12 05:34:26;;;;;;;28.92;14.65;;;;;;;13.72;42.12;99992.84;3377985;29;20056;-75
2021/10/12 05:36:07;;;;;;;23.45;15.57;;;;;;;13.81;42.11;99994.28;3376857;29;20131;-77
2021/10/12 05:37:49;;;;;;;28.70;14.13;;;;;;;13.89;42.30;99996.75;3377091;29;20509;-75
2021/10/12 05:39:29;;;;;;;23.45;14.07;;;;;;;13.98;41.83;99989.28;3377065;29;20048;-76
2021/10/12 05:41:10;;;;;;;24.55;14.70;;;;;;;14.03;41.66;99991.34;3377349;29;20104;-79
2021/10/12 05:42:51;;;;;;;21.73;13.88;;;;;;;14.04;41.53;99992.97;3376546;29;20048;-76
2021/10/12 05:44:33;;;;;;;22.58;13.27;;;;;;;14.05;42.75;99994.66;3377354;29;20041;-76
2021/10/12 05:46:13;;;;;;;25.95;12.32;;;;;;;14.19;43.46;99996.25;3376765;29;20366;-78
2021/10/12 05:47:54;;;;;;;23.95;11.45;;;;;;;14.57;44.33;100000.91;3376280;29;20055;-75
2021/10/12 05:49:37;;;;;;;17.52;10.95;;;;;;;14.95;43.93;99994.72;3376598;29;20040;-76
2021/10/12 05:51:21;;;;;;;26.85;14.25;;;;;;;15.30;42.39;99997.78;3363936;29;20049;-79
2021/10/12 05:56:49;;;;;;;27.05;11.90;;;;;;;16.33;40.70;99991.88;3363472;29;20044;-76
2021/10/12 05:58:34;;;;;;;22.08;11.38;;;;;;;16.54;39.55;99992.47;3370465;29;20067;-78
2021/10/12 06:00:15;;;;;;;18.90;11.00;;;;;;;16.72;39.27;99988.91;3376225;29;20045;-76
2021/10/12 06:01:56;;;;;;;23.98;13.65;;;;;;;16.69;38.68;99994.75;3376132;29;20076;-77
2021/10/12 06:03:36;;;;;;;17.42;12.15;;;;;;;16.64;38.61;99991.94;3376411;29;20079;-77
2021/10/12 06:05:17;;;;;;;22.63;13.98;;;;;;;16.70;38.48;99999.09;3376223;29;20055;-76
2021/10/12 06:07:01;;;;;;;24.77;14.20;;;;;;;16.68;38.31;99982.38;3375934;29;20128;-76
2021/10/12 06:08:43;;;;;;;21.30;12.13;;;;;;;16.84;37.92;99986.31;3375466;29;20040;-77
2021/10/12 06:10:23;;;;;;;16.98;12.23;;;;;;;16.96;38.07;99993.38;3376070;29;20051;-76
2021/10/12 06:12:04;;;;;;;20.85;13.10;;;;;;;17.16;37.84;99984.19;3374552;29;20052;-76
2021/10/12 06:13:47;;;;;;;18.08;13.73;;;;;;;17.38;36.89;99989.88;3376362;29;20044;-76
2021/10/12 06:15:27;;;;;;;19.98;13.02;;;;;;;17.49;36.91;99990.94;3376090;29;20049;-75
2021/10/12 06:17:08;;;;;;;15.85;10.63;;;;;;;17.64;36.83;99985.91;3376441;29;20052;-76
2021/10/12 06:18:49;;;;;;;18.05;12.38;;;;;;;17.62;35.99;99985.31;3375832;29;20049;-76
2021/10/12 06:20:29;;;;;;;23.73;13.93;;;;;;;17.51;36.15;99991.53;3376673;29;20463;-76
2021/10/12 06:22:10;;;;;;;25.88;14.07;;;;;;;17.57;36.09;99979.81;3375952;29;20052;-76
2021/10/12 06:23:51;;;;;;;20.70;12.95;;;;;;;17.76;35.62;99978.66;3375719;29;20044;-76
2021/10/12 06:25:32;;;;;;;18.25;11.93;;;;;;;18.01;35.61;99980.28;3376132;29;20609;-75
2021/10/12 06:27:14;;;;;;;22.35;12.07;;;;;;;18.28;35.64;99992.22;3388374;29;20095;-78
2021/10/12 06:28:54;;;;;;;24.23;13.85;;;;;;;18.50;34.87;99994.28;3379310;29;20053;-76
2021/10/12 06:30:35;;;;;;;23.58;13.32;;;;;;;18.62;34.60;99992.38;3363130;29;20127;-76
2021/10/12 06:32:16;;;;;;;20.47;13.50;;;;;;;18.69;34.30;99995.75;3371664;29;20051;-77
2021/10/12 06:33:57;;;;;;;17.20;11.73;;;;;;;18.87;34.54;99996.63;3376783;29;20049;-76
2021/10/12 06:35:38;;;;;;;19.27;13.00;;;;;;;19.13;34.15;99993.34;3374724;29;20041;-77
2021/10/12 06:37:21;;;;;;;26.17;11.00;;;;;;;19.40;33.74;99995.41;3373240;29;20044;-76
2021/10/12 06:39:02;;;;;;;20.70;12.70;;;;;;;19.59;33.07;99996.81;3376298;29;20075;-77
2021/10/12 06:40:43;;;;;;;21.58;12.80;;;;;;;19.60;33.07;99998.44;3376604;29;20048;-76
2021/10/12 06:42:24;;;;;;;20.55;13.48;;;;;;;19.65;33.02;99988.78;3375235;29;20143;-77
2021/10/12 06:44:05;;;;;;;18.23;13.23;;;;;;;19.71;32.82;99985.13;3374179;29;20064;-77
2021/10/12 06:45:45;;;;;;;20.48;12.82;;;;;;;19.92;32.53;99980.81;3372459;29;20540;-75
2021/10/12 06:47:26;;;;;;;18.83;12.27;;;;;;;20.34;32.24;99983.00;3376270;29;20051;-75
2021/10/12 06:49:07;;;;;;;23.83;13.07;;;;;;;20.71;31.50;99979.69;3376001;29;20412;-74
2021/10/12 06:50:47;;;;;;;19.30;13.10;;;;;;;21.11;31.35;99979.25;3375924;29;20037;-75
2021/10/12 06:52:28;;;;;;;22.20;12.53;;;;;;;21.56;30.78;99980.78;3374508;29;20047;-77
2021/10/12 06:54:09;;;;;;;25.90;14.60;;;;;;;22.00;30.11;99980.50;3375871;29;20036;-77
2021/10/12 06:55:53;;;;;;;32.07;16.03;;;;;;;22.14;29.76;99984.38;3374891;29;20050;-76
2021/10/12 06:57:34;;;;;;;18.45;10.93;;;;;;;22.35;29.92;99981.78;3375589;29;20112;-76
2021/10/12 06:59:16;;;;;;;20.50;11.82;;;;;;;22.64;29.76;99980.28;3374326;29;20053;-76
2021/10/12 07:00:57;;;;;;;25.52;14.82;;;;;;;22.86;28.95;99987.38;3371370;29;20393;-75
2021/10/12 07:02:40;;;;;;;22.40;12.17;;;;;;;23.08;28.58;99985.28;3362716;29;20060;-77
2021/10/12 07:04:21;;;;;;;23.25;13.80;;;;;;;23.22;28.28;99984.75;3374643;29;20081;-75
2021/10/12 07:06:03;;;;;;;25.80;14.55;;;;;;;23.41;27.98;99972.22;3364333;29;20064;-77
2021/10/12 07:07:44;;;;;;;26.00;16.57;;;;;;;23.39;27.66;99974.44;3360917;29;20540;-75
2021/10/12 07:09:25;;;;;;;25.40;15.27;;;;;;;23.50;27.24;99976.03;3362316;29;20062;-77
2021/10/12 07:11:06;;;;;;;26.23;13.60;;;;;;;23.77;27.02;99979.59;3363238;29;20084;-77
2021/10/12 07:12:47;;;;;;;27.90;15.00;;;;;;;23.92;26.61;99983.09;3376202;29;20040;-76
2021/10/12 07:14:30;;;;;;;22.85;14.13;;;;;;;24.01;26.62;99971.63;3379420;29;20524;-76
2021/10/12 07:16:10;;;;;;;25.67;15.18;;;;;;;24.19;26.37;99976.50;3377032;29;20059;-78
2021/10/12 07:17:52;;;;;;;21.87;14.87;;;;;;;24.31;26.31;99978.88;3378002;29;20067;-77
2021/10/12 07:19:32;;;;;;;23.83;13.00;;;;;;;24.58;26.61;99973.88;3375917;29;20064;-76
2021/10/12 07:21:13;;;;;;;23.63;14.80;;;;;;;24.85;26.13;99966.38;3374927;29;20041;-76
2021/10/12 07:22:54;;;;;;;28.30;14.03;;;;;;;25.00;25.74;99969.00;3374312;29;20100;-77
2021/10/12 07:24:35;;;;;;;24.42;14.55;;;;;;;25.18;25.82;99971.06;3374434;29;20523;-76
2021/10/12 07:26:16;;;;;;;24.90;16.67;;;;;;;25.34;24.95;99974.50;3372922;29;20048;-77
2021/10/12 07:27:57;;;;;;;32.80;17.15;;;;;;;25.42;25.04;99973.06;3370500;29;20048;-75
2021/10/12 07:29:37;;;;;;;25.67;16.83;;;;;;;25.52;24.89;99970.25;3373682;29;20420;-77
2021/10/12 07:31:18;;;;;;;27.80;14.47;;;;;;;25.67;25.16;99972.84;3373442;29;20086;-76
2021/10/12 07:32:59;;;;;;;22.17;14.27;;;;;;;25.94;24.66;99966.03;3380255;29;20044;-76
2021/10/12 07:34:40;;;;;;;25.07;16.17;;;;;;;26.23;24.70;99970.63;3381300;29;20103;-75
2021/10/12 07:36:22;;;;;;;23.48;15.65;;;;;;;26.43;24.16;99978.56;3381023;29;20104;-76
2021/10/12 07:38:03;;;;;;;22.00;14.77;;;;;;;26.67;23.76;99975.03;3381541;29;20041;-75
2021/10/12 07:39:44;;;;;;;25.73;15.87;;;;;;;26.86;23.58;99980.50;3381260;29;20423;-75
2021/10/12 07:41:29;;;;;;;27.00;14.60;;;;;;;26.83;23.10;99970.16;3368112;29;20052;-75
2021/10/12 07:43:11;;;;;;;26.10;16.08;;;;;;;26.84;22.82;99969.03;3373227;29;20056;-78
2021/10/12 07:44:52;;;;;;;22.65;13.90;;;;;;;27.04;22.99;99976.94;3373187;29;20056;-76
2021/10/12 07:46:34;;;;;;;21.93;13.03;;;;;;;27.32;23.36;99977.88;3373157;29;20485;-77